sensor_id;sensor_type;location;lat;lon;timestamp;pressure;altitude;pressure_sealevel;temperature;humidity
50774;BME280;36745;48.544;8.918;2023-05-09T00:01:15;97629.50;;;12.91;100.00
50774;BME280;36745;48.544;8.918;2023-05-09T00:04:36;97631.06;;;12.92;100.00
50774;BME280;36745;48.544;8.918;2023-05-09T00:07:56;97628.63;;;12.94;100.00
50774;BME280;36745;48.544;8.918;2023-05-09T00:11:15;97621.16;;;13.04;100.00
50774;BME280;36745;48.544;8.918;2023-05-09T00:14:35;97618.97;;;12.99;100.00
50774;BME280;36745;48.544;8.918;2023-05-09T00:17:55;97615.78;;;13.00;100.00
50774;BME280;36745;48.544;8.918;2023-05-09T00:21:15;97615.19;;;13.06;100.00
50774;BME280;36745;48.544;8.918;2023-05-09T00:24:35;97611.75;;;13.01;100.00
50774;BME280;36745;48.544;8.918;2023-05-09T00:27:55;97615.19;;;13.06;100.00
50774;BME280;36745;48.544;8.918;2023-05-09T00:31:15;97619.81;;;13.09;100.00
50774;BME280;36745;48.544;8.918;2023-05-09T00:34:35;97613.84;;;13.10;100.00
50774;BME280;36745;48.544;8.918;2023-05-09T00:37:54;97607.09;;;13.11;100.00
50774;BME280;36745;48.544;8.918;2023-05-09T00:41:14;97603.31;;;13.18;100.00
50774;BME280;36745;48.544;8.918;2023-05-09T00:44:34;97603.88;;;13.13;100.00
50774;BME280;36745;48.544;8.918;2023-05-09T00:47:54;97603.53;;;13.11;100.00
50774;BME280;36745;48.544;8.918;2023-05-09T00:51:14;97605.75;;;13.16;100.00
50774;BME280;36745;48.544;8.918;2023-05-09T00:54:34;97597.19;;;13.23;100.00
50774;BME280;36745;48.544;8.918;2023-05-09T00:57:53;97598.09;;;13.20;100.00
50774;BME280;36745;48.544;8.918;2023-05-09T01:01:13;97601.09;;;13.13;100.00
50774;BME280;36745;48.544;8.918;2023-05-09T01:04:33;97597.91;;;13.14;100.00
50774;BME280;36745;48.544;8.918;2023-05-09T01:15:45;97594.78;;;13.34;100.00
50774;BME280;36745;48.544;8.918;2023-05-09T01:23:45;97577.88;;;13.32;100.00
50774;BME280;36745;48.544;8.918;2023-05-09T01:27:36;97572.59;;;13.25;100.00
50774;BME280;36745;48.544;8.918;2023-05-09T01:30:57;97568.59;;;13.26;100.00
50774;BME280;36745;48.544;8.918;2023-05-09T01:34:17;97566.63;;;13.26;100.00
50774;BME280;36745;48.544;8.918;2023-05-09T01:37:40;97569.06;;;13.24;100.00
50774;BME280;36745;48.544;8.918;2023-05-09T01:41:01;97570.59;;;13.25;100.00
50774;BME280;36745;48.544;8.918;2023-05-09T01:44:24;97566.72;;;13.23;100.00
50774;BME280;36745;48.544;8.918;2023-05-09T01:47:46;97570.03;;;13.30;100.00
50774;BME280;36745;48.544;8.918;2023-05-09T01:51:08;97571.56;;;13.31;100.00
50774;BME280;36745;48.544;8.918;2023-05-09T01:54:29;97559.56;;;13.34;100.00
50774;BME280;36745;48.544;8.918;2023-05-09T01:57:49;97574.19;;;13.35;100.00
50774;BME280;36745;48.544;8.918;2023-05-09T02:01:10;97561.84;;;13.27;100.00
50774;BME280;36745;48.544;8.918;2023-05-09T02:04:34;97564.81;;;13.32;100.00
50774;BME280;36745;48.544;8.918;2023-05-09T02:07:55;97557.91;;;13.37;100.00
50774;BME280;36745;48.544;8.918;2023-05-09T02:11:18;97558.50;;;13.32;100.00
50774;BME280;36745;48.544;8.918;2023-05-09T02:14:37;97541.25;;;13.28;100.00
50774;BME280;36745;48.544;8.918;2023-05-09T02:17:57;97560.63;;;13.28;100.00
50774;BME280;36745;48.544;8.918;2023-05-09T02:21:17;97548.31;;;13.29;100.00
50774;BME280;36745;48.544;8.918;2023-05-09T02:24:37;97544.19;;;13.33;100.00
50774;BME280;36745;48.544;8.918;2023-05-09T02:27:57;97543.16;;;13.40;100.00
50774;BME280;36745;48.544;8.918;2023-05-09T02:31:19;97550.88;;;13.45;100.00
50774;BME280;36745;48.544;8.918;2023-05-09T02:34:39;97546.88;;;13.46;100.00
50774;BME280;36745;48.544;8.918;2023-05-09T02:38:00;97548.44;;;13.47;100.00
50774;BME280;36745;48.544;8.918;2023-05-09T02:41:20;97539.53;;;13.52;100.00
50774;BME280;36745;48.544;8.918;2023-05-09T02:44:40;97532.31;;;13.55;100.00
50774;BME280;36745;48.544;8.918;2023-05-09T02:48:00;97529.41;;;13.58;100.00
50774;BME280;36745;48.544;8.918;2023-05-09T02:51:20;97519.34;;;13.52;100.00
50774;BME280;36745;48.544;8.918;2023-05-09T02:54:39;97521.66;;;13.44;100.00
50774;BME280;36745;48.544;8.918;2023-05-09T02:57:59;97520.41;;;13.45;100.00
50774;BME280;36745;48.544;8.918;2023-05-09T03:01:19;97520.41;;;13.45;100.00
50774;BME280;36745;48.544;8.918;2023-05-09T03:04:39;97520.09;;;13.43;100.00
50774;BME280;36745;48.544;8.918;2023-05-09T03:07:59;97513.47;;;13.40;100.00
50774;BME280;36745;48.544;8.918;2023-05-09T03:11:19;97519.31;;;13.42;100.00
50774;BME280;36745;48.544;8.918;2023-05-09T03:14:39;97518.88;;;13.44;100.00
50774;BME280;36745;48.544;8.918;2023-05-09T03:17:58;97517.63;;;13.45;100.00
50774;BME280;36745;48.544;8.918;2023-05-09T03:21:18;97513.66;;;13.46;100.00
50774;BME280;36745;48.544;8.918;2023-05-09T03:24:38;97514.28;;;13.50;100.00
50774;BME280;36745;48.544;8.918;2023-05-09T03:27:58;97516.91;;;13.54;100.00
50774;BME280;36745;48.544;8.918;2023-05-09T03:31:18;97507.22;;;13.49;100.00
50774;BME280;36745;48.544;8.918;2023-05-09T03:34:37;97505.34;;;13.46;100.00
50774;BME280;36745;48.544;8.918;2023-05-09T03:37:57;97507.81;;;13.44;100.00
50774;BME280;36745;48.544;8.918;2023-05-09T03:41:17;97513.00;;;13.42;100.00
50774;BME280;36745;48.544;8.918;2023-05-09T03:44:37;97507.47;;;13.42;100.00
50774;BME280;36745;48.544;8.918;2023-05-09T03:47:57;97500.13;;;13.48;100.00
50774;BME280;36745;48.544;8.918;2023-05-09T03:51:17;97495.84;;;13.56;100.00
50774;BME280;36745;48.544;8.918;2023-05-09T03:54:37;97495.84;;;13.56;100.00
50774;BME280;36745;48.544;8.918;2023-05-09T03:57:57;97490.94;;;13.60;100.00
50774;BME280;36745;48.544;8.918;2023-05-09T04:01:16;97498.59;;;13.56;100.00
50774;BME280;36745;48.544;8.918;2023-05-09T04:04:36;97499.69;;;13.59;100.00
50774;BME280;36745;48.544;8.918;2023-05-09T04:07:56;97496.94;;;13.59;100.00
50774;BME280;36745;48.544;8.918;2023-05-09T04:11:16;97492.28;;;13.56;100.00
50774;BME280;36745;48.544;8.918;2023-05-09T04:14:38;97489.66;;;13.52;100.00
50774;BME280;36745;48.544;8.918;2023-05-09T04:17:57;97493.38;;;13.49;100.00
50774;BME280;36745;48.544;8.918;2023-05-09T04:21:17;97501.00;;;13.45;100.00
50774;BME280;36745;48.544;8.918;2023-05-09T04:24:37;97494.84;;;13.41;100.00
50774;BME280;36745;48.544;8.918;2023-05-09T04:27:57;97489.16;;;13.44;100.00
50774;BME280;36745;48.544;8.918;2023-05-09T04:31:17;97486.72;;;13.47;100.00
50774;BME280;36745;48.544;8.918;2023-05-09T04:34:37;97491.47;;;13.46;100.00
50774;BME280;36745;48.544;8.918;2023-05-09T04:37:57;97491.47;;;13.46;100.00
50774;BME280;36745;48.544;8.918;2023-05-09T04:41:17;97487.34;;;13.51;100.00
50774;BME280;36745;48.544;8.918;2023-05-09T04:44:36;97483.84;;;13.59;100.00
50774;BME280;36745;48.544;8.918;2023-05-09T04:47:56;97482.16;;;13.62;100.00
50774;BME280;36745;48.544;8.918;2023-05-09T04:51:16;97474.34;;;13.69;100.00
50774;BME280;36745;48.544;8.918;2023-05-09T04:54:36;97482.38;;;13.76;100.00
50774;BME280;36745;48.544;8.918;2023-05-09T04:57:55;97481.44;;;13.79;100.00
50774;BME280;36745;48.544;8.918;2023-05-09T05:01:15;97479.63;;;13.76;100.00
50774;BME280;36745;48.544;8.918;2023-05-09T05:04:35;97478.06;;;13.84;100.00
50774;BME280;36745;48.544;8.918;2023-05-09T05:07:55;97479.63;;;13.95;100.00
50774;BME280;36745;48.544;8.918;2023-05-09T05:11:15;97479.81;;;14.00;100.00
50774;BME280;36745;48.544;8.918;2023-05-09T05:14:36;97482.13;;;14.02;100.00
50774;BME280;36745;48.544;8.918;2023-05-09T05:17:55;97481.50;;;13.98;100.00
50774;BME280;36745;48.544;8.918;2023-05-09T05:21:15;97484.56;;;14.00;100.00
50774;BME280;36745;48.544;8.918;2023-05-09T05:24:35;97479.63;;;13.95;100.00
50774;BME280;36745;48.544;8.918;2023-05-09T05:27:55;97476.41;;;13.87;100.00
50774;BME280;36745;48.544;8.918;2023-05-09T05:31:14;97481.47;;;13.88;100.00
50774;BME280;36745;48.544;8.918;2023-05-09T05:34:34;97484.88;;;13.93;100.00
50774;BME280;36745;48.544;8.918;2023-05-09T05:37:54;97487.34;;;14.00;100.00
50774;BME280;36745;48.544;8.918;2023-05-09T05:41:14;97479.81;;;14.00;100.00
50774;BME280;36745;48.544;8.918;2023-05-09T05:44:34;97480.09;;;13.93;100.00
50774;BME280;36745;48.544;8.918;2023-05-09T05:47:54;97479.13;;;13.78;100.00
50774;BME280;36745;48.544;8.918;2023-05-09T05:51:14;97475.47;;;13.81;100.00
50774;BME280;36745;48.544;8.918;2023-05-09T05:54:34;97475.94;;;13.88;100.00
50774;BME280;36745;48.544;8.918;2023-05-09T05:57:54;97477.78;;;13.92;100.00
50774;BME280;36745;48.544;8.918;2023-05-09T06:01:14;97476.09;;;13.94;100.00
50774;BME280;36745;48.544;8.918;2023-05-09T06:04:33;97467.94;;;14.00;100.00
50774;BME280;36745;48.544;8.918;2023-05-09T06:07:53;97460.56;;;14.06;100.00
50774;BME280;36745;48.544;8.918;2023-05-09T06:11:13;97456.72;;;14.12;100.00
50774;BME280;36745;48.544;8.918;2023-05-09T06:14:33;97451.34;;;14.09;100.00
50774;BME280;36745;48.544;8.918;2023-05-09T06:17:53;97446.41;;;14.13;100.00
50774;BME280;36745;48.544;8.918;2023-05-09T06:21:13;97444.25;;;14.17;100.00
50774;BME280;36745;48.544;8.918;2023-05-09T06:24:33;97444.56;;;14.28;100.00
50774;BME280;36745;48.544;8.918;2023-05-09T06:27:52;97441.19;;;14.24;100.00
50774;BME280;36745;48.544;8.918;2023-05-09T06:31:12;97451.34;;;14.18;100.00
50774;BME280;36745;48.544;8.918;2023-05-09T06:34:32;97440.09;;;14.21;100.00
50774;BME280;36745;48.544;8.918;2023-05-09T06:37:52;97437.47;;;14.27;100.00
50774;BME280;36745;48.544;8.918;2023-05-09T06:41:12;97428.53;;;14.32;100.00
50774;BME280;36745;48.544;8.918;2023-05-09T06:44:31;97435.34;;;14.58;100.00
50774;BME280;36745;48.544;8.918;2023-05-09T06:47:51;97437.00;;;14.74;100.00
50774;BME280;36745;48.544;8.918;2023-05-09T06:51:11;97427.25;;;14.97;100.00
50774;BME280;36745;48.544;8.918;2023-05-09T06:54:31;97419.19;;;15.08;100.00
50774;BME280;36745;48.544;8.918;2023-05-09T06:57:51;97417.28;;;15.23;100.00
50774;BME280;36745;48.544;8.918;2023-05-09T07:01:11;97413.88;;;15.28;100.00
50774;BME280;36745;48.544;8.918;2023-05-09T07:04:30;97411.84;;;15.38;100.00
50774;BME280;36745;48.544;8.918;2023-05-09T07:07:50;97407.56;;;15.61;100.00
50774;BME280;36745;48.544;8.918;2023-05-09T07:11:10;97414.31;;;15.69;100.00
50774;BME280;36745;48.544;8.918;2023-05-09T07:14:30;97405.91;;;15.45;100.00
50774;BME280;36745;48.544;8.918;2023-05-09T07:17:49;97399.97;;;15.37;100.00
50774;BME280;36745;48.544;8.918;2023-05-09T07:21:09;97388.84;;;15.37;100.00
50774;BME280;36745;48.544;8.918;2023-05-09T07:24:29;97385.69;;;15.53;100.00
50774;BME280;36745;48.544;8.918;2023-05-09T07:27:49;97375.97;;;15.49;100.00
50774;BME280;36745;48.544;8.918;2023-05-09T07:31:09;97375.66;;;15.47;100.00
50774;BME280;36745;48.544;8.918;2023-05-09T07:34:28;97366.25;;;15.44;100.00
50774;BME280;36745;48.544;8.918;2023-05-09T07:37:48;97369.09;;;15.68;100.00
50774;BME280;36745;48.544;8.918;2023-05-09T07:41:08;97364.09;;;15.96;100.00
50774;BME280;36745;48.544;8.918;2023-05-09T07:44:28;97360.09;;;16.50;100.00
50774;BME280;36745;48.544;8.918;2023-05-09T07:47:48;97341.50;;;16.71;100.00
50774;BME280;36745;48.544;8.918;2023-05-09T07:51:08;97352.44;;;16.60;100.00
50774;BME280;36745;48.544;8.918;2023-05-09T07:54:27;97335.03;;;16.94;100.00
50774;BME280;36745;48.544;8.918;2023-05-09T07:57:47;97334.28;;;17.29;100.00
50774;BME280;36745;48.544;8.918;2023-05-09T08:01:07;97329.22;;;17.27;100.00
50774;BME280;36745;48.544;8.918;2023-05-09T08:04:27;97323.44;;;17.31;100.00
50774;BME280;36745;48.544;8.918;2023-05-09T08:07:47;97318.78;;;17.07;100.00
50774;BME280;36745;48.544;8.918;2023-05-09T08:11:07;97311.50;;;16.95;100.00
50774;BME280;36745;48.544;8.918;2023-05-09T08:14:26;97309.34;;;17.19;100.00
50774;BME280;36745;48.544;8.918;2023-05-09T08:17:46;97309.63;;;17.22;100.00
50774;BME280;36745;48.544;8.918;2023-05-09T08:21:06;97313.13;;;17.37;100.00
50774;BME280;36745;48.544;8.918;2023-05-09T08:24:26;97307.81;;;17.39;100.00
50774;BME280;36745;48.544;8.918;2023-05-09T08:27:46;97296.13;;;17.35;100.00
50774;BME280;36745;48.544;8.918;2023-05-09T08:31:05;97299.97;;;17.57;100.00
50774;BME280;36745;48.544;8.918;2023-05-09T08:34:25;97287.78;;;17.95;100.00
50774;BME280;36745;48.544;8.918;2023-05-09T08:37:45;97284.56;;;18.28;100.00
50774;BME280;36745;48.544;8.918;2023-05-09T08:41:06;97281.31;;;18.30;100.00
50774;BME280;36745;48.544;8.918;2023-05-09T08:44:28;97277.22;;;18.05;100.00
50774;BME280;36745;48.544;8.918;2023-05-09T08:47:48;97274.06;;;18.18;100.00
50774;BME280;36745;48.544;8.918;2023-05-09T08:51:08;97269.78;;;17.96;100.00
50774;BME280;36745;48.544;8.918;2023-05-09T08:54:30;97263.88;;;18.15;100.00
50774;BME280;36745;48.544;8.918;2023-05-09T08:57:51;97273.63;;;17.99;100.00
50774;BME280;36745;48.544;8.918;2023-05-09T09:01:13;97268.69;;;17.88;100.00
50774;BME280;36745;48.544;8.918;2023-05-09T09:04:32;97255.19;;;17.61;98.97
50774;BME280;36745;48.544;8.918;2023-05-09T09:07:52;97262.31;;;17.62;100.00
50774;BME280;36745;48.544;8.918;2023-05-09T09:11:13;97263.56;;;17.81;100.00
50774;BME280;36745;48.544;8.918;2023-05-09T09:14:37;97250.41;;;17.87;100.00
50774;BME280;36745;48.544;8.918;2023-05-09T09:17:58;97256.41;;;18.00;100.00
50774;BME280;36745;48.544;8.918;2023-05-09T09:21:22;97236.97;;;18.12;99.67
50774;BME280;36745;48.544;8.918;2023-05-09T09:24:42;97238.41;;;18.01;99.13
50774;BME280;36745;48.544;8.918;2023-05-09T09:28:02;97224.50;;;18.33;99.80
50774;BME280;36745;48.544;8.918;2023-05-09T09:31:26;97220.81;;;18.78;100.00
50774;BME280;36745;48.544;8.918;2023-05-09T09:34:49;97215.88;;;18.62;97.43
50774;BME280;36745;48.544;8.918;2023-05-09T09:38:09;97211.75;;;18.89;97.62
50774;BME280;36745;48.544;8.918;2023-05-09T09:41:36;97214.75;;;18.85;96.08
50774;BME280;36745;48.544;8.918;2023-05-09T09:45:01;97204.97;;;18.64;94.26
50774;BME280;36745;48.544;8.918;2023-05-09T09:48:25;97208.47;;;18.59;92.88
50774;BME280;36745;48.544;8.918;2023-05-09T09:51:49;97193.06;;;18.38;91.72
50774;BME280;36745;48.544;8.918;2023-05-09T09:55:10;97189.66;;;18.23;91.83
50774;BME280;36745;48.544;8.918;2023-05-09T09:58:31;97181.22;;;18.85;94.48
50774;BME280;36745;48.544;8.918;2023-05-09T10:01:55;97182.22;;;19.31;94.98
50774;BME280;36745;48.544;8.918;2023-05-09T10:08:45;97166.84;;;18.98;86.43
50774;BME280;36745;48.544;8.918;2023-05-09T10:12:07;97160.56;;;19.14;90.29
50774;BME280;36745;48.544;8.918;2023-05-09T10:15:27;97157.56;;;19.29;87.25
50774;BME280;36745;48.544;8.918;2023-05-09T10:18:48;97151.41;;;19.14;86.29
50774;BME280;36745;48.544;8.918;2023-05-09T10:22:09;97143.13;;;19.42;87.62
50774;BME280;36745;48.544;8.918;2023-05-09T10:25:46;97136.59;;;19.61;86.21
50774;BME280;36745;48.544;8.918;2023-05-09T10:29:08;97132.81;;;19.81;86.75
50774;BME280;36745;48.544;8.918;2023-05-09T10:32:31;97135.38;;;19.96;86.09
50774;BME280;36745;48.544;8.918;2023-05-09T10:35:53;97128.00;;;20.04;85.79
50774;BME280;36745;48.544;8.918;2023-05-09T10:39:14;97122.41;;;20.09;86.27
50774;BME280;36745;48.544;8.918;2023-05-09T10:42:34;97112.47;;;20.14;84.89
50774;BME280;36745;48.544;8.918;2023-05-09T10:45:54;97114.25;;;19.95;81.95
50774;BME280;36745;48.544;8.918;2023-05-09T10:49:14;97108.66;;;19.78;81.58
50774;BME280;36745;48.544;8.918;2023-05-09T10:56:31;97101.31;;;19.92;81.16
50774;BME280;36745;48.544;8.918;2023-05-09T10:59:51;97089.06;;;19.73;80.57
50774;BME280;36745;48.544;8.918;2023-05-09T11:03:11;97086.00;;;19.70;80.85
50774;BME280;36745;48.544;8.918;2023-05-09T11:10:14;97058.03;;;19.82;81.60
50774;BME280;36745;48.544;8.918;2023-05-09T11:13:36;97055.25;;;19.76;80.67
50774;BME280;36745;48.544;8.918;2023-05-09T11:17:02;97054.50;;;19.59;78.76
50774;BME280;36745;48.544;8.918;2023-05-09T11:20:26;97044.81;;;19.54;79.14
50774;BME280;36745;48.544;8.918;2023-05-09T11:23:47;97039.22;;;19.65;79.44
50774;BME280;36745;48.544;8.918;2023-05-09T11:27:22;97040.22;;;20.18;80.87
50774;BME280;36745;48.544;8.918;2023-05-09T11:30:42;97037.44;;;20.35;79.04
50774;BME280;36745;48.544;8.918;2023-05-09T11:34:04;97028.69;;;20.61;78.62
50774;BME280;36745;48.544;8.918;2023-05-09T11:37:30;97024.28;;;20.82;79.40
50774;BME280;36745;48.544;8.918;2023-05-09T11:40:50;97012.34;;;20.70;75.07
50774;BME280;36745;48.544;8.918;2023-05-09T11:44:18;97012.38;;;20.65;74.24
50774;BME280;36745;48.544;8.918;2023-05-09T11:47:38;97012.03;;;20.85;75.84
50774;BME280;36745;48.544;8.918;2023-05-09T11:51:00;97003.84;;;20.24;71.99
50774;BME280;36745;48.544;8.918;2023-05-09T11:54:22;96993.28;;;20.58;75.21
50774;BME280;36745;48.544;8.918;2023-05-09T11:57:50;96987.97;;;21.06;74.95
50774;BME280;36745;48.544;8.918;2023-05-09T12:01:10;96979.44;;;21.28;73.39
50774;BME280;36745;48.544;8.918;2023-05-09T12:04:31;96977.47;;;21.12;72.14
50774;BME280;36745;48.544;8.918;2023-05-09T12:07:51;96967.19;;;20.85;70.10
50774;BME280;36745;48.544;8.918;2023-05-09T12:11:12;96960.72;;;21.01;72.01
50774;BME280;36745;48.544;8.918;2023-05-09T12:14:33;96962.09;;;20.89;70.04
50774;BME280;36745;48.544;8.918;2023-05-09T12:18:19;96948.00;;;21.00;71.40
50774;BME280;36745;48.544;8.918;2023-05-09T12:21:42;96950.22;;;21.18;72.02
50774;BME280;36745;48.544;8.918;2023-05-09T12:25:06;96948.34;;;21.32;70.36
50774;BME280;36745;48.544;8.918;2023-05-09T12:28:27;96935.16;;;21.21;70.30
50774;BME280;36745;48.544;8.918;2023-05-09T12:31:48;96935.16;;;20.75;69.54
50774;BME280;36745;48.544;8.918;2023-05-09T12:35:08;96920.09;;;20.83;69.53
50774;BME280;36745;48.544;8.918;2023-05-09T12:38:28;96919.66;;;20.68;67.05
50774;BME280;36745;48.544;8.918;2023-05-09T12:41:49;96913.19;;;20.43;68.62
50774;BME280;36745;48.544;8.918;2023-05-09T12:45:10;96908.84;;;20.42;69.49
50774;BME280;36745;48.544;8.918;2023-05-09T12:48:34;96907.84;;;20.45;68.46
50774;BME280;36745;48.544;8.918;2023-05-09T12:51:57;96901.50;;;20.39;69.10
50774;BME280;36745;48.544;8.918;2023-05-09T12:55:18;96901.66;;;20.52;69.97
50774;BME280;36745;48.544;8.918;2023-05-09T12:58:38;96891.47;;;20.61;68.79
50774;BME280;36745;48.544;8.918;2023-05-09T13:01:59;96896.88;;;20.42;69.14
50774;BME280;36745;48.544;8.918;2023-05-09T13:05:21;96894.47;;;20.63;69.63
50774;BME280;36745;48.544;8.918;2023-05-09T13:08:40;96892.59;;;20.82;69.79
50774;BME280;36745;48.544;8.918;2023-05-09T13:12:02;96879.97;;;21.05;69.99
50774;BME280;36745;48.544;8.918;2023-05-09T13:15:22;96868.25;;;21.01;66.98
50774;BME280;36745;48.544;8.918;2023-05-09T13:18:42;96873.38;;;20.97;68.45
50774;BME280;36745;48.544;8.918;2023-05-09T13:22:01;96868.88;;;21.24;68.24
50774;BME280;36745;48.544;8.918;2023-05-09T13:25:21;96863.06;;;21.11;66.58
50774;BME280;36745;48.544;8.918;2023-05-09T13:28:41;96851.84;;;21.16;66.69
50774;BME280;36745;48.544;8.918;2023-05-09T13:32:01;96855.25;;;21.33;66.79
50774;BME280;36745;48.544;8.918;2023-05-09T13:35:21;96852.72;;;21.35;65.24
50774;BME280;36745;48.544;8.918;2023-05-09T13:38:41;96837.31;;;21.48;66.71
50774;BME280;36745;48.544;8.918;2023-05-09T13:42:01;96831.63;;;21.77;66.73
50774;BME280;36745;48.544;8.918;2023-05-09T13:45:22;96825.47;;;21.79;65.16
50774;BME280;36745;48.544;8.918;2023-05-09T13:48:42;96823.72;;;21.76;65.04
50774;BME280;36745;48.544;8.918;2023-05-09T13:52:03;96818.94;;;21.71;64.90
50774;BME280;36745;48.544;8.918;2023-05-09T13:55:23;96812.22;;;21.80;64.24
50774;BME280;36745;48.544;8.918;2023-05-09T13:58:44;96807.38;;;21.56;64.19
50774;BME280;36745;48.544;8.918;2023-05-09T14:02:04;96799.91;;;21.64;64.59
50774;BME280;36745;48.544;8.918;2023-05-09T14:05:24;96795.66;;;21.76;64.27
50774;BME280;36745;48.544;8.918;2023-05-09T14:08:44;96793.56;;;21.82;63.92
50774;BME280;36745;48.544;8.918;2023-05-09T14:12:03;96788.56;;;21.75;63.34
50774;BME280;36745;48.544;8.918;2023-05-09T14:15:23;96778.06;;;21.75;63.89
50774;BME280;36745;48.544;8.918;2023-05-09T14:18:43;96772.38;;;21.81;63.62
50774;BME280;36745;48.544;8.918;2023-05-09T14:22:03;96765.63;;;21.71;63.05
50774;BME280;36745;48.544;8.918;2023-05-09T14:25:23;96761.72;;;21.55;63.16
50774;BME280;36745;48.544;8.918;2023-05-09T14:28:42;96765.59;;;21.52;62.92
50774;BME280;36745;48.544;8.918;2023-05-09T14:32:03;96767.41;;;21.50;63.05
50774;BME280;36745;48.544;8.918;2023-05-09T14:35:23;96754.00;;;21.61;64.01
50774;BME280;36745;48.544;8.918;2023-05-09T14:38:43;96754.88;;;21.75;63.66
50774;BME280;36745;48.544;8.918;2023-05-09T14:42:03;96747.75;;;21.74;63.62
50774;BME280;36745;48.544;8.918;2023-05-09T14:45:24;96747.59;;;21.85;63.93
50774;BME280;36745;48.544;8.918;2023-05-09T14:48:45;96742.59;;;21.78;63.77
50774;BME280;36745;48.544;8.918;2023-05-09T14:52:04;96736.66;;;21.63;62.85
50774;BME280;36745;48.544;8.918;2023-05-09T14:55:24;96733.75;;;21.50;63.40
50774;BME280;36745;48.544;8.918;2023-05-09T14:58:46;96737.16;;;21.43;63.43
50774;BME280;36745;48.544;8.918;2023-05-09T15:02:05;96726.84;;;21.51;63.54
50774;BME280;36745;48.544;8.918;2023-05-09T15:05:25;96716.72;;;21.48;63.58
50774;BME280;36745;48.544;8.918;2023-05-09T15:08:45;96724.22;;;21.58;63.73
50774;BME280;36745;48.544;8.918;2023-05-09T15:12:05;96719.22;;;21.51;62.86
50774;BME280;36745;48.544;8.918;2023-05-09T15:15:25;96717.00;;;21.44;62.44
50774;BME280;36745;48.544;8.918;2023-05-09T15:18:45;96717.81;;;21.39;63.36
50774;BME280;36745;48.544;8.918;2023-05-09T15:22:05;96706.09;;;21.16;63.30
50774;BME280;36745;48.544;8.918;2023-05-09T15:25:25;96705.06;;;21.19;63.51
50774;BME280;36745;48.544;8.918;2023-05-09T15:28:46;96699.75;;;21.16;64.47
50774;BME280;36745;48.544;8.918;2023-05-09T15:32:05;96707.00;;;21.00;64.85
50774;BME280;36745;48.544;8.918;2023-05-09T15:35:25;96696.75;;;20.78;64.94
50774;BME280;36745;48.544;8.918;2023-05-09T15:38:45;96694.34;;;20.64;65.48
50774;BME280;36745;48.544;8.918;2023-05-09T15:42:07;96697.22;;;20.58;65.79
50774;BME280;36745;48.544;8.918;2023-05-09T15:45:27;96696.44;;;20.58;65.94
50774;BME280;36745;48.544;8.918;2023-05-09T15:48:47;96691.34;;;20.62;66.00
50774;BME280;36745;48.544;8.918;2023-05-09T15:52:08;96694.66;;;20.60;66.32
50774;BME280;36745;48.544;8.918;2023-05-09T15:55:30;96686.22;;;20.66;67.30
50774;BME280;36745;48.544;8.918;2023-05-09T15:58:49;96680.31;;;20.69;67.46
50774;BME280;36745;48.544;8.918;2023-05-09T16:02:09;96669.91;;;20.64;67.50
50774;BME280;36745;48.544;8.918;2023-05-09T16:05:30;96676.63;;;20.56;67.51
50774;BME280;36745;48.544;8.918;2023-05-09T16:08:50;96669.81;;;20.51;67.14
50774;BME280;36745;48.544;8.918;2023-05-09T16:12:10;96670.06;;;20.47;67.96
50774;BME280;36745;48.544;8.918;2023-05-09T16:15:30;96660.34;;;20.54;68.70
50774;BME280;36745;48.544;8.918;2023-05-09T16:18:50;96660.03;;;20.58;69.45
50774;BME280;36745;48.544;8.918;2023-05-09T16:22:10;96662.38;;;20.53;69.83
50774;BME280;36745;48.544;8.918;2023-05-09T16:25:29;96667.25;;;20.47;70.23
50774;BME280;36745;48.544;8.918;2023-05-09T16:28:49;96670.34;;;20.44;70.36
50774;BME280;36745;48.544;8.918;2023-05-09T16:32:09;96670.66;;;20.40;70.84
50774;BME280;36745;48.544;8.918;2023-05-09T16:35:29;96672.16;;;20.41;72.70
50774;BME280;36745;48.544;8.918;2023-05-09T16:38:48;96666.16;;;20.26;73.14
50774;BME280;36745;48.544;8.918;2023-05-09T16:42:08;96671.81;;;20.15;73.21
50774;BME280;36745;48.544;8.918;2023-05-09T16:45:28;96667.63;;;19.97;73.59
50774;BME280;36745;48.544;8.918;2023-05-09T16:48:50;96667.97;;;19.83;74.13
50774;BME280;36745;48.544;8.918;2023-05-09T16:52:10;96668.38;;;19.57;74.33
50774;BME280;36745;48.544;8.918;2023-05-09T16:55:30;96672.75;;;19.41;74.13
50774;BME280;36745;48.544;8.918;2023-05-09T16:58:50;96675.09;;;19.32;74.06
50774;BME280;36745;48.544;8.918;2023-05-09T17:02:09;96675.34;;;19.22;74.21
50774;BME280;36745;48.544;8.918;2023-05-09T17:05:29;96689.13;;;19.15;75.69
50774;BME280;36745;48.544;8.918;2023-05-09T17:08:50;96699.09;;;18.82;75.78
50774;BME280;36745;48.544;8.918;2023-05-09T17:12:10;96703.16;;;18.31;77.28
50774;BME280;36745;48.544;8.918;2023-05-09T17:15:35;96708.94;;;17.94;77.00
50774;BME280;36745;48.544;8.918;2023-05-09T17:18:56;96706.34;;;17.63;77.87
50774;BME280;36745;48.544;8.918;2023-05-09T17:22:16;96708.03;;;17.49;78.25
50774;BME280;36745;48.544;8.918;2023-05-09T17:25:36;96717.22;;;17.61;78.32
50774;BME280;36745;48.544;8.918;2023-05-09T17:28:56;96711.91;;;17.63;78.69
50774;BME280;36745;48.544;8.918;2023-05-09T17:32:16;96708.31;;;17.57;78.48
50774;BME280;36745;48.544;8.918;2023-05-09T17:35:36;96703.47;;;17.52;79.13
50774;BME280;36745;48.544;8.918;2023-05-09T17:38:56;96704.22;;;17.47;79.41
50774;BME280;36745;48.544;8.918;2023-05-09T17:42:16;96700.69;;;17.52;79.45
50774;BME280;36745;48.544;8.918;2023-05-09T17:45:36;96699.16;;;17.51;79.57
50774;BME280;36745;48.544;8.918;2023-05-09T17:48:57;96707.75;;;17.42;80.14
50774;BME280;36745;48.544;8.918;2023-05-09T17:52:17;96703.44;;;17.41;80.68
50774;BME280;36745;48.544;8.918;2023-05-09T17:55:37;96702.44;;;17.44;81.00
50774;BME280;36745;48.544;8.918;2023-05-09T17:58:58;96702.41;;;17.33;82.01